Time;durP1;ratioP1;P1;durP2;ratioP2;P2;SDS_P1;SDS_P2;PMS_P1;PMS_P2;Temp;Humidity;BMP_temperature;BMP_pressure;BME280_temperature;BME280_humidity;BME280_pressure;Samples;Min_cycle;Max_cycle;Signal;HPM_P1;HPM_P2
2023/07/07 00:01:46;;;;;;;6.97;4.60;;;13.60;99.90;;;;;;5110926;28;20070;-75
2023/07/07 00:04:11;;;;;;;11.32;5.10;;;13.60;99.90;;;;;;5092231;28;20035;-74
2023/07/07 00:06:37;;;;;;;13.23;5.20;;;13.70;99.90;;;;;;5111353;28;20076;-76
2023/07/07 00:09:03;;;;;;;11.05;5.03;;;13.50;99.90;;;;;;5110124;28;20058;-74
2023/07/07 00:11:29;;;;;;;10.73;5.35;;;13.30;99.90;;;;;;5111768;28;20048;-75
2023/07/07 00:13:55;;;;;;;10.88;5.22;;;13.20;99.90;;;;;;5111940;28;20430;-75
2023/07/07 00:16:27;;;;;;;11.20;4.80;;;13.20;99.90;;;;;;5111211;28;20043;-75
2023/07/07 00:19:00;;;;;;;10.73;5.05;;;13.20;99.90;;;;;;5110230;28;20134;-75
2023/07/07 00:21:26;;;;;;;8.95;5.13;;;13.40;99.90;;;;;;5092389;28;20488;-75
2023/07/07 00:23:53;;;;;;;13.38;5.18;;;13.40;99.90;;;;;;5103902;28;20106;-74
2023/07/07 00:26:20;;;;;;;10.50;5.15;;;13.50;99.90;;;;;;5092232;28;20673;-74
2023/07/07 00:28:47;;;;;;;10.45;5.32;;;13.50;99.90;;;;;;5103980;27;20039;-75
2023/07/07 00:31:13;;;;;;;9.27;5.43;;;13.40;99.90;;;;;;5096388;28;20040;-75
2023/07/07 00:33:39;;;;;;;11.57;5.75;;;13.40;99.90;;;;;;5110826;28;20034;-75
2023/07/07 00:36:05;;;;;;;12.18;5.40;;;13.40;99.90;;;;;;5110842;28;20031;-75
2023/07/07 00:38:31;;;;;;;10.18;5.55;;;13.30;99.90;;;;;;5110904;28;20031;-75
2023/07/07 00:41:04;;;;;;;11.32;5.47;;;13.20;99.90;;;;;;5097970;28;20507;-75
2023/07/07 00:43:30;;;;;;;11.00;5.53;;;13.10;99.90;;;;;;5091469;28;20057;-75
2023/07/07 00:45:57;;;;;;;8.57;5.45;;;13.10;99.90;;;;;;5102571;28;20034;-74
2023/07/07 00:48:35;;;;;;;9.93;5.57;;;13.00;99.90;;;;;;5111227;28;20054;-75
2023/07/07 00:51:08;;;;;;;10.07;5.03;;;13.10;99.90;;;;;;5108994;28;20031;-74
2023/07/07 00:53:34;;;;;;;9.18;4.88;;;13.00;99.90;;;;;;5111915;28;20024;-74
2023/07/07 00:56:04;;;;;;;11.23;5.32;;;12.90;99.90;;;;;;5102300;28;20031;-74
2023/07/07 00:58:31;;;;;;;9.67;5.23;;;12.90;99.90;;;;;;5122240;27;20030;-74
2023/07/07 01:01:05;;;;;;;9.77;5.32;;;12.90;99.90;;;;;;5107655;27;20847;-75
2023/07/07 01:03:39;;;;;;;13.65;5.53;;;12.80;99.90;;;;;;5090249;28;20457;-75
2023/07/07 01:06:07;;;;;;;9.75;5.40;;;12.80;99.90;;;;;;5090372;28;20557;-75
2023/07/07 01:08:38;;;;;;;9.75;5.47;;;12.70;99.90;;;;;;5091287;28;20020;-74
2023/07/07 01:11:04;;;;;;;8.85;5.40;;;12.60;99.90;;;;;;5094768;28;20557;-74
2023/07/07 01:13:30;;;;;;;7.78;5.40;;;12.60;99.90;;;;;;5110986;28;20138;-75
2023/07/07 01:16:05;;;;;;;10.77;5.75;;;12.70;99.90;;;;;;5111584;27;20121;-75
2023/07/07 01:18:45;;;;;;;7.28;4.95;;;12.70;99.90;;;;;;5111322;28;20040;-74
2023/07/07 01:21:29;;;;;;;8.40;4.97;;;12.70;99.90;;;;;;5093166;28;20388;-76
2023/07/07 01:24:24;;;;;;;10.50;5.40;;;12.60;99.90;;;;;;5090876;28;20096;-74
2023/07/07 01:26:55;;;;;;;9.18;5.22;;;12.50;99.90;;;;;;5104757;27;20028;-74
2023/07/07 01:29:24;;;;;;;11.85;5.68;;;12.50;99.90;;;;;;5111714;27;20031;-75
2023/07/07 01:32:13;;;;;;;8.40;5.30;;;12.50;99.90;;;;;;5111118;28;20035;-74
2023/07/07 01:34:39;;;;;;;10.32;5.55;;;12.50;99.90;;;;;;5130535;27;20023;-75
2023/07/07 01:37:05;;;;;;;11.32;5.25;;;12.50;99.90;;;;;;5126743;27;20032;-75
2023/07/07 01:39:31;;;;;;;9.05;5.53;;;12.50;99.90;;;;;;5110354;28;20375;-76
2023/07/07 01:41:59;;;;;;;9.90;5.70;;;12.50;99.90;;;;;;5110414;28;20096;-74
2023/07/07 01:44:56;;;;;;;8.10;5.25;;;12.50;99.90;;;;;;5097886;28;20036;-75
2023/07/07 01:47:34;;;;;;;9.85;5.35;;;12.50;99.90;;;;;;5108075;28;20047;-74
2023/07/07 01:50:11;;;;;;;10.23;5.93;;;12.30;99.90;;;;;;5086297;28;20039;-75
2023/07/07 01:52:47;;;;;;;11.48;5.75;;;12.30;99.90;;;;;;5090266;28;20047;-75
2023/07/07 01:55:21;;;;;;;11.05;5.68;;;12.20;99.90;;;;;;5105448;28;20479;-74
2023/07/07 01:57:55;;;;;;;13.30;5.70;;;12.10;99.90;;;;;;5090025;28;20060;-74
2023/07/07 02:00:22;;;;;;;8.98;5.50;;;12.00;99.90;;;;;;5102815;28;20073;-75
2023/07/07 02:02:50;;;;;;;11.60;5.68;;;11.90;99.90;;;;;;5109450;28;20099;-75
2023/07/07 02:05:15;;;;;;;10.35;5.85;;;11.90;99.90;;;;;;5109388;28;20031;-75
2023/07/07 02:07:41;;;;;;;11.00;5.72;;;11.90;99.90;;;;;;5110839;27;20093;-74
2023/07/07 02:10:07;;;;;;;9.95;5.75;;;11.90;99.90;;;;;;5107945;28;20027;-75
2023/07/07 02:12:33;;;;;;;10.43;5.40;;;11.90;99.90;;;;;;5109479;28;20033;-74
2023/07/07 02:14:58;;;;;;;10.52;5.03;;;11.90;99.90;;;;;;5091417;28;20185;-74
2023/07/07 02:17:24;;;;;;;8.75;5.43;;;11.80;99.90;;;;;;5109881;28;20156;-74
2023/07/07 02:19:50;;;;;;;8.90;5.60;;;11.80;99.90;;;;;;5109272;28;20028;-75
2023/07/07 02:22:16;;;;;;;13.05;5.93;;;11.80;99.90;;;;;;5110472;27;20160;-74
2023/07/07 02:24:42;;;;;;;8.88;5.63;;;11.70;99.90;;;;;;5110663;28;20476;-74
2023/07/07 02:27:10;;;;;;;11.27;6.03;;;11.80;99.90;;;;;;5090813;28;20023;-73
2023/07/07 02:29:36;;;;;;;10.55;6.43;;;11.80;99.90;;;;;;5107860;28;20031;-74
2023/07/07 02:32:02;;;;;;;10.35;5.47;;;11.80;99.90;;;;;;5108673;28;20042;-74
2023/07/07 02:34:28;;;;;;;9.45;5.72;;;11.70;99.90;;;;;;5109941;28;20055;-74
2023/07/07 02:36:54;;;;;;;10.52;6.05;;;11.70;99.90;;;;;;5108995;28;20539;-75
2023/07/07 02:39:20;;;;;;;10.60;6.25;;;11.70;99.90;;;;;;5107575;28;20092;-74
2023/07/07 02:41:45;;;;;;;12.25;5.78;;;11.70;99.90;;;;;;5108986;27;20031;-73
2023/07/07 02:44:12;;;;;;;9.35;5.72;;;11.70;99.90;;;;;;5090806;28;20073;-74
2023/07/07 02:46:37;;;;;;;11.40;6.13;;;11.70;99.90;;;;;;5109435;28;20038;-74
2023/07/07 02:49:03;;;;;;;10.57;5.72;;;11.70;99.90;;;;;;5108954;28;20028;-75
2023/07/07 02:51:29;;;;;;;12.10;6.05;;;11.70;99.90;;;;;;5112658;27;20074;-75
2023/07/07 02:53:56;;;;;;;8.80;5.40;;;11.70;99.90;;;;;;5112901;27;20036;-74
2023/07/07 02:56:23;;;;;;;12.02;5.65;;;11.70;99.90;;;;;;5106717;28;20127;-75
2023/07/07 02:58:49;;;;;;;11.38;5.65;;;11.60;99.90;;;;;;5089797;28;20070;-75
2023/07/07 03:01:21;;;;;;;11.07;5.65;;;11.60;99.90;;;;;;5099706;28;20036;-74
2023/07/07 03:03:51;;;;;;;10.18;5.50;;;11.60;99.90;;;;;;5103197;28;20055;-74
2023/07/07 03:06:19;;;;;;;8.90;5.15;;;11.60;99.90;;;;;;5113447;27;20140;-74
2023/07/07 03:08:45;;;;;;;10.70;5.65;;;11.70;99.90;;;;;;5108310;28;20058;-75
2023/07/07 03:11:13;;;;;;;11.18;6.45;;;11.70;99.90;;;;;;5089214;28;20028;-74
2023/07/07 03:13:39;;;;;;;9.98;5.97;;;11.60;99.90;;;;;;5108589;28;20031;-74
2023/07/07 03:16:11;;;;;;;10.70;5.85;;;11.50;99.90;;;;;;5095518;28;20027;-75
2023/07/07 03:18:38;;;;;;;11.75;5.72;;;11.30;99.90;;;;;;5104166;28;20038;-75
2023/07/07 03:21:04;;;;;;;9.80;6.18;;;11.20;99.90;;;;;;5104173;28;20118;-75
2023/07/07 03:23:30;;;;;;;15.27;6.10;;;11.20;99.90;;;;;;5104493;28;20028;-74
2023/07/07 03:25:55;;;;;;;11.63;6.10;;;11.20;99.90;;;;;;5108428;28;20032;-74
2023/07/07 03:28:21;;;;;;;9.80;5.43;;;11.10;99.90;;;;;;5108253;28;20031;-74
2023/07/07 03:30:48;;;;;;;11.57;6.18;;;11.10;99.90;;;;;;5109031;28;20114;-74
2023/07/07 03:33:14;;;;;;;11.07;5.95;;;11.00;99.90;;;;;;5109200;28;20039;-75
2023/07/07 03:35:39;;;;;;;10.80;5.93;;;11.00;99.90;;;;;;5107736;28;20027;-74
2023/07/07 03:38:05;;;;;;;10.63;5.93;;;11.00;99.90;;;;;;5108284;28;20053;-75
2023/07/07 03:40:32;;;;;;;10.18;5.95;;;11.00;99.90;;;;;;5108885;28;20380;-75
2023/07/07 03:42:57;;;;;;;12.45;5.97;;;11.10;99.90;;;;;;5107706;28;20040;-74
2023/07/07 03:45:23;;;;;;;12.68;6.13;;;11.20;99.90;;;;;;5108084;28;20129;-74
2023/07/07 03:47:49;;;;;;;10.25;5.90;;;11.10;99.90;;;;;;5107443;28;20055;-74
2023/07/07 03:50:15;;;;;;;12.82;5.63;;;11.10;99.90;;;;;;5105354;28;20074;-74
2023/07/07 03:52:41;;;;;;;13.70;6.15;;;11.10;99.90;;;;;;5106663;28;20391;-75
2023/07/07 03:55:07;;;;;;;9.80;5.68;;;11.10;99.90;;;;;;5128656;28;20110;-74
2023/07/07 03:57:33;;;;;;;10.27;6.07;;;11.00;99.90;;;;;;5104150;28;20027;-75
2023/07/07 03:59:59;;;;;;;10.30;5.97;;;11.00;99.90;;;;;;5109582;28;20032;-73
2023/07/07 04:02:24;;;;;;;13.68;5.97;;;11.00;99.90;;;;;;5105305;28;20103;-74
2023/07/07 04:04:50;;;;;;;9.05;5.57;;;11.10;99.90;;;;;;5105922;28;20031;-79
2023/07/07 04:07:16;;;;;;;12.38;6.32;;;11.20;99.90;;;;;;5105770;28;20654;-78
2023/07/07 04:09:41;;;;;;;11.15;5.85;;;11.20;99.90;;;;;;5108053;28;20131;-74
2023/07/07 04:12:09;;;;;;;12.23;5.93;;;11.20;99.90;;;;;;5107461;28;20059;-72
2023/07/07 04:14:34;;;;;;;14.05;6.07;;;11.20;99.90;;;;;;5104847;28;20053;-74
2023/07/07 04:17:00;;;;;;;10.10;5.70;;;11.30;99.90;;;;;;5107912;28;20468;-73
2023/07/07 04:19:25;;;;;;;10.23;5.60;;;11.40;99.90;;;;;;5107846;28;20027;-73
2023/07/07 04:21:51;;;;;;;12.25;6.05;;;11.40;99.90;;;;;;5108642;28;20027;-76
2023/07/07 04:24:20;;;;;;;11.07;6.07;;;11.50;99.90;;;;;;5099928;28;20054;-78
2023/07/07 04:26:47;;;;;;;12.30;6.05;;;11.60;99.90;;;;;;5090009;28;20023;-79
2023/07/07 04:29:12;;;;;;;8.50;5.22;;;11.70;99.90;;;;;;5106704;28;20115;-80
2023/07/07 04:31:38;;;;;;;9.70;5.07;;;11.80;99.90;;;;;;5106981;28;20110;-80
2023/07/07 04:34:03;;;;;;;14.98;5.85;;;11.80;99.90;;;;;;5107589;28;20085;-77
2023/07/07 04:36:29;;;;;;;10.68;5.72;;;11.70;99.90;;;;;;5108594;28;20033;-79
2023/07/07 04:38:55;;;;;;;11.25;6.38;;;11.70;99.90;;;;;;5108995;28;20445;-78
2023/07/07 04:41:25;;;;;;;9.88;5.85;;;11.90;99.90;;;;;;5111245;28;20102;-78
2023/07/07 04:43:56;;;;;;;11.63;5.82;;;12.00;99.90;;;;;;5109911;28;20026;-78
2023/07/07 04:46:27;;;;;;;14.70;6.07;;;12.20;99.90;;;;;;5111262;28;20527;-75
2023/07/07 04:48:53;;;;;;;9.43;5.63;;;12.30;99.90;;;;;;5111900;28;20042;-73
2023/07/07 04:51:19;;;;;;;9.90;5.60;;;12.50;99.90;;;;;;5108818;28;20032;-71
2023/07/07 04:53:45;;;;;;;10.20;5.53;;;12.60;99.90;;;;;;5116729;27;20074;-77
2023/07/07 04:56:16;;;;;;;11.27;6.32;;;12.70;99.90;;;;;;5105237;28;20028;-72
2023/07/07 04:58:42;;;;;;;;;;;12.80;99.90;;;;;;5106397;27;20478;-80
2023/07/07 05:01:19;;;;;;;8.75;5.35;;;12.80;99.90;;;;;;5108251;27;19911;-68
2023/07/07 05:03:49;;;;;;;11.38;6.22;;;13.00;99.90;;;;;;5107546;28;20067;-72
2023/07/07 05:06:14;;;;;;;8.57;5.88;;;13.00;99.90;;;;;;5110893;28;20512;-77
2023/07/07 05:08:42;;;;;;;10.25;5.82;;;13.20;99.90;;;;;;5109838;28;20031;-71
2023/07/07 05:11:11;;;;;;;10.75;6.00;;;13.30;99.90;;;;;;5101645;28;20035;-74
2023/07/07 05:13:37;;;;;;;10.93;6.03;;;13.50;99.90;;;;;;5110600;28;20030;-79
2023/07/07 05:16:05;;;;;;;8.98;5.55;;;13.70;99.90;;;;;;5110447;28;20032;-82
2023/07/07 05:18:30;;;;;;;10.65;6.00;;;13.80;99.90;;;;;;5110404;28;20028;-83
2023/07/07 05:20:57;;;;;;;10.27;5.63;;;13.90;99.90;;;;;;5085831;28;20089;-81
2023/07/07 05:23:22;;;;;;;8.50;5.75;;;14.20;99.90;;;;;;5090633;28;20046;-83
2023/07/07 05:25:49;;;;;;;9.90;5.82;;;14.40;99.90;;;;;;5110824;28;20024;-74
2023/07/07 05:28:14;;;;;;;11.48;5.95;;;14.50;99.90;;;;;;5106355;28;20027;-73
2023/07/07 05:30:40;;;;;;;9.20;5.63;;;14.60;99.90;;;;;;5109760;28;20640;-76
2023/07/07 05:33:06;;;;;;;11.07;5.97;;;14.60;99.90;;;;;;5111094;28;20119;-74
2023/07/07 05:35:31;;;;;;;9.45;5.45;;;14.70;99.90;;;;;;5108863;28;20027;-73
2023/07/07 05:38:00;;;;;;;12.32;6.13;;;14.80;99.90;;;;;;5109852;28;20565;-73
2023/07/07 05:40:29;;;;;;;10.95;6.00;;;15.10;99.90;;;;;;5109909;28;20073;-74
2023/07/07 05:42:54;;;;;;;10.82;6.20;;;15.20;99.90;;;;;;5110796;28;20046;-71
2023/07/07 05:45:23;;;;;;;11.25;5.75;;;15.40;99.90;;;;;;5109037;28;20020;-78
2023/07/07 05:47:49;;;;;;;12.88;6.13;;;15.50;99.90;;;;;;5107908;28;20434;-73
2023/07/07 05:50:15;;;;;;;10.20;5.60;;;15.60;99.90;;;;;;5107923;28;20096;-74
2023/07/07 05:52:40;;;;;;;9.05;5.57;;;15.90;99.90;;;;;;5109670;28;20039;-74
2023/07/07 05:55:06;;;;;;;8.82;5.65;;;16.20;99.90;;;;;;5108791;28;20035;-77
2023/07/07 05:57:32;;;;;;;10.68;5.57;;;16.50;99.90;;;;;;5117964;27;20027;-74
2023/07/07 05:59:58;;;;;;;13.73;6.47;;;16.70;99.90;;;;;;5131074;27;20035;-76
2023/07/07 06:02:23;;;;;;;11.30;5.35;;;16.90;99.90;;;;;;5130316;27;20023;-74
2023/07/07 06:04:49;;;;;;;9.13;5.38;;;17.10;99.90;;;;;;5116781;27;20032;-73
2023/07/07 06:07:15;;;;;;;12.88;5.65;;;17.30;99.90;;;;;;5107465;28;20476;-71
2023/07/07 06:09:40;;;;;;;15.35;5.88;;;17.50;99.90;;;;;;5107901;28;20027;-77
2023/07/07 06:12:07;;;;;;;10.73;5.97;;;17.70;99.90;;;;;;5110164;28;20085;-79
2023/07/07 06:14:32;;;;;;;10.40;5.65;;;17.80;99.90;;;;;;5109848;28;20053;-82
2023/07/07 06:16:58;;;;;;;9.13;5.65;;;18.10;99.90;;;;;;5108539;28;20027;-82
2023/07/07 06:19:24;;;;;;;10.07;5.75;;;18.20;99.90;;;;;;5109349;28;20069;-81
2023/07/07 06:21:49;;;;;;;11.73;5.80;;;18.50;99.90;;;;;;5110063;28;20076;-78
2023/07/07 06:24:15;;;;;;;10.05;5.47;;;18.90;99.90;;;;;;5109360;28;20032;-73
2023/07/07 06:26:41;;;;;;;10.32;5.65;;;19.20;99.90;;;;;;5109779;28;20353;-76
2023/07/07 06:29:06;;;;;;;8.25;5.35;;;19.60;99.90;;;;;;5109667;27;20055;-74
2023/07/07 06:31:32;;;;;;;9.25;5.20;;;19.60;99.90;;;;;;5109099;28;20042;-79
2023/07/07 06:33:57;;;;;;;9.82;5.43;;;19.70;99.90;;;;;;5109802;28;20057;-79
2023/07/07 06:36:23;;;;;;;8.07;5.28;;;19.90;99.90;;;;;;5109207;28;20568;-83
2023/07/07 06:38:49;;;;;;;8.40;5.22;;;20.10;99.90;;;;;;5106901;28;20024;-80
2023/07/07 06:41:19;;;;;;;10.68;5.35;;;20.30;99.90;;;;;;5109256;28;20059;-72
2023/07/07 06:43:44;;;;;;;14.65;5.40;;;20.50;99.90;;;;;;5109846;28;20056;-78
2023/07/07 06:46:12;;;;;;;12.02;5.25;;;20.80;99.90;;;;;;5109664;28;20521;-77
2023/07/07 06:48:41;;;;;;;9.18;5.18;;;21.20;99.90;;;;;;5108865;28;20097;-74
2023/07/07 06:51:06;;;;;;;9.77;5.07;;;21.60;99.90;;;;;;5109431;28;20093;-77
2023/07/07 06:53:32;;;;;;;9.88;5.22;;;22.00;99.90;;;;;;5107544;28;20035;-77
2023/07/07 06:55:58;;;;;;;8.45;4.90;;;22.30;99.90;;;;;;5108981;28;20376;-78
2023/07/07 06:58:23;;;;;;;10.77;4.72;;;22.40;99.90;;;;;;5096758;28;20036;-76
2023/07/07 07:00:49;;;;;;;9.15;5.07;;;22.60;99.90;;;;;;5089080;28;20032;-77
2023/07/07 07:03:15;;;;;;;10.98;5.28;;;22.70;99.90;;;;;;5093529;27;20050;-72
2023/07/07 07:05:41;;;;;;;9.70;4.95;;;22.80;99.90;;;;;;5107025;27;20460;-78
2023/07/07 07:08:07;;;;;;;12.32;4.72;;;22.90;99.90;;;;;;5109091;28;20547;-76
2023/07/07 07:10:32;;;;;;;9.57;5.20;;;23.00;99.90;;;;;;5108526;28;20082;-78
2023/07/07 07:12:58;;;;;;;8.73;5.30;;;23.10;99.90;;;;;;5109209;28;20031;-74
2023/07/07 07:15:23;;;;;;;9.52;5.00;;;23.20;99.90;;;;;;5108582;28;20035;-77
2023/07/07 07:17:49;;;;;;;11.93;5.43;;;23.20;99.10;;;;;;5109258;28;20039;-76
2023/07/07 07:20:17;;;;;;;13.57;4.97;;;23.30;99.20;;;;;;5109063;28;20028;-73
2023/07/07 07:22:43;;;;;;;9.18;5.40;;;23.50;98.20;;;;;;5107705;28;20055;-71
2023/07/07 07:25:09;;;;;;;10.70;4.78;;;23.60;97.60;;;;;;5106218;28;20152;-77
2023/07/07 07:27:37;;;;;;;8.10;4.82;;;23.70;97.20;;;;;;5106521;28;20043;-72
2023/07/07 07:30:04;;;;;;;9.05;5.20;;;23.80;96.70;;;;;;5109142;28;20088;-79
2023/07/07 07:32:30;;;;;;;9.80;5.03;;;23.90;96.10;;;;;;5107312;28;20065;-78
2023/07/07 07:34:55;;;;;;;8.65;4.80;;;24.00;95.60;;;;;;5107308;28;20039;-78
2023/07/07 07:37:21;;;;;;;9.90;5.07;;;24.10;95.60;;;;;;5112645;28;20051;-72
2023/07/07 07:39:47;;;;;;;14.15;4.80;;;24.20;94.70;;;;;;5107105;28;20039;-75
2023/07/07 07:42:12;;;;;;;9.55;4.40;;;24.20;94.60;;;;;;5108970;28;20555;-78
2023/07/07 07:44:38;;;;;;;10.50;5.00;;;24.30;93.70;;;;;;5106640;28;20095;-73
2023/07/07 07:47:04;;;;;;;8.13;4.63;;;24.30;93.80;;;;;;5107809;28;20054;-78
2023/07/07 07:49:30;;;;;;;10.48;4.47;;;24.50;94.00;;;;;;5106394;28;20059;-77
2023/07/07 07:51:56;;;;;;;10.60;5.38;;;24.70;92.70;;;;;;5110385;28;20055;-70
2023/07/07 07:54:23;;;;;;;9.07;5.03;;;24.90;93.00;;;;;;5107827;28;20528;-71
2023/07/07 07:56:49;;;;;;;8.52;5.20;;;25.00;92.70;;;;;;5108583;28;20491;-71
2023/07/07 07:59:15;;;;;;;10.18;5.50;;;25.10;92.60;;;;;;5107948;28;20495;-69
2023/07/07 08:01:41;;;;;;;10.85;5.65;;;25.10;89.50;;;;;;5100390;28;20028;-72
2023/07/07 08:04:07;;;;;;;8.52;4.85;;;25.10;89.50;;;;;;5089370;28;20028;-71
2023/07/07 08:06:36;;;;;;;11.30;5.38;;;25.00;90.00;;;;;;5117304;28;20471;-75
2023/07/07 08:09:05;;;;;;;9.33;5.47;;;25.10;90.10;;;;;;5108495;28;20027;-71
2023/07/07 08:11:43;;;;;;;12.52;5.00;;;25.10;90.40;;;;;;5107965;28;20085;-80
2023/07/07 08:14:14;;;;;;;9.05;5.28;;;25.20;89.80;;;;;;5112607;28;20027;-79
2023/07/07 08:16:40;;;;;;;13.13;5.40;;;25.30;89.70;;;;;;5110121;28;20032;-78
2023/07/07 08:19:06;;;;;;;10.07;5.65;;;25.10;89.00;;;;;;5112563;28;20038;-81
2023/07/07 08:21:32;;;;;;;10.10;5.25;;;25.00;88.30;;;;;;5111491;28;20030;-76
2023/07/07 08:23:58;;;;;;;8.40;5.18;;;25.00;89.10;;;;;;5112320;28;20023;-77
2023/07/07 08:26:24;;;;;;;12.13;5.35;;;25.00;89.80;;;;;;5110812;28;20446;-70
2023/07/07 08:28:53;;;;;;;9.30;5.28;;;25.20;90.10;;;;;;5111428;27;20032;-75
2023/07/07 08:31:18;;;;;;;12.77;5.38;;;25.00;88.40;;;;;;5100092;27;20422;-76
2023/07/07 08:33:49;;;;;;;9.45;5.13;;;25.00;85.80;;;;;;5091185;28;20044;-78
2023/07/07 08:36:15;;;;;;;;;;;25.00;86.30;;;;;;5092112;28;20527;-76
2023/07/07 08:38:40;;;;;;;8.82;5.28;;;25.00;86.90;;;;;;5090570;28;19947;-77
2023/07/07 08:41:06;;;;;;;10.63;5.43;;;25.20;87.30;;;;;;5085915;28;20062;-77
2023/07/07 08:43:32;;;;;;;10.00;5.47;;;25.30;86.20;;;;;;5111336;28;20456;-75
2023/07/07 08:46:07;;;;;;;12.88;5.55;;;25.30;83.20;;;;;;5111970;28;20046;-77
2023/07/07 08:48:45;;;;;;;8.48;5.25;;;25.20;82.10;;;;;;5109683;28;20047;-78
2023/07/07 08:51:19;;;;;;;10.07;6.25;;;25.20;85.60;;;;;;5102422;28;20054;-76
2023/07/07 08:53:56;;;;;;;13.00;6.10;;;25.50;81.40;;;;;;5112657;27;20353;-77
2023/07/07 08:56:52;;;;;;;14.07;6.03;;;25.50;81.80;;;;;;5121052;27;20115;-70
2023/07/07 08:59:24;;;;;;;13.05;5.75;;;25.60;79.80;;;;;;5111109;28;20028;-77
2023/07/07 09:02:23;;;;;;;11.63;6.40;;;25.60;81.00;;;;;;5093415;28;20216;-75
2023/07/07 09:05:07;;;;;;;11.20;5.75;;;25.60;78.60;;;;;;5110381;28;20093;-74
2023/07/07 09:07:33;;;;;;;9.85;5.63;;;25.60;77.80;;;;;;5106138;28;20039;-74
2023/07/07 09:10:30;;;;;;;12.73;5.75;;;25.60;78.10;;;;;;5108809;28;20024;-78
2023/07/07 09:13:20;;;;;;;12.38;6.20;;;25.90;77.10;;;;;;5101910;28;20094;-80
2023/07/07 09:16:08;;;;;;;21.60;5.75;;;25.90;76.30;;;;;;5090196;28;20031;-79
2023/07/07 09:18:39;;;;;;;12.05;6.50;;;25.60;75.30;;;;;;5107487;28;20177;-76
2023/07/07 09:21:18;;;;;;;11.93;5.88;;;25.70;76.50;;;;;;5111489;28;20035;-73
2023/07/07 09:23:45;;;;;;;11.55;6.38;;;26.00;75.80;;;;;;5108476;28;20037;-78
2023/07/07 09:26:28;;;;;;;14.90;5.95;;;26.40;73.20;;;;;;5111309;28;20020;-73
2023/07/07 09:28:59;;;;;;;12.15;5.82;;;26.80;73.60;;;;;;5087400;28;20487;-77
2023/07/07 09:31:41;;;;;;;12.07;5.95;;;27.00;70.30;;;;;;5095501;28;20036;-72
2023/07/07 09:34:11;;;;;;;11.40;6.05;;;27.20;69.90;;;;;;5096784;28;20071;-76
2023/07/07 09:36:58;;;;;;;13.10;5.72;;;27.40;67.10;;;;;;5112259;28;20161;-75
2023/07/07 09:39:53;;;;;;;9.98;5.82;;;27.20;67.30;;;;;;5112761;28;20031;-69
2023/07/07 09:42:39;;;;;;;12.35;6.07;;;27.20;65.50;;;;;;5094162;28;20120;-75
2023/07/07 09:45:29;;;;;;;11.05;6.25;;;27.40;65.70;;;;;;5121056;27;20035;-75
2023/07/07 09:48:05;;;;;;;12.80;6.35;;;27.30;67.40;;;;;;5109599;28;20239;-78
2023/07/07 09:50:34;;;;;;;11.60;5.88;;;27.00;67.60;;;;;;5104164;28;20046;-78
2023/07/07 09:53:11;;;;;;;11.90;6.63;;;26.90;69.30;;;;;;5110325;28;20039;-78
2023/07/07 09:55:38;;;;;;;10.40;5.53;;;27.30;68.40;;;;;;5109211;28;20039;-77
2023/07/07 09:58:23;;;;;;;14.38;6.78;;;27.60;67.10;;;;;;5110628;28;20047;-76
2023/07/07 10:00:54;;;;;;;12.43;6.43;;;27.80;64.00;;;;;;5095043;28;20032;-79
2023/07/07 10:03:22;;;;;;;12.23;6.30;;;27.70;66.50;;;;;;5090085;28;20032;-79
2023/07/07 10:05:50;;;;;;;12.68;6.05;;;28.00;60.30;;;;;;5089205;28;20073;-77
2023/07/07 10:08:18;;;;;;;11.23;6.63;;;28.30;61.30;;;;;;5089709;28;20020;-77
2023/07/07 10:10:55;;;;;;;9.32;5.85;;;28.50;57.50;;;;;;5088954;28;20058;-80
2023/07/07 10:13:23;;;;;;;14.38;6.25;;;28.20;57.70;;;;;;5089673;28;20028;-74
2023/07/07 10:16:00;;;;;;;14.48;5.97;;;28.20;60.70;;;;;;5089195;28;20020;-79
2023/07/07 10:18:29;;;;;;;10.23;6.10;;;27.90;59.20;;;;;;5102934;28;20027;-73
2023/07/07 10:20:59;;;;;;;10.48;6.18;;;27.30;59.00;;;;;;5103392;28;20695;-77
2023/07/07 10:23:28;;;;;;;12.37;6.83;;;27.40;59.10;;;;;;5101777;28;20088;-80
2023/07/07 10:25:54;;;;;;;9.73;5.80;;;27.40;58.00;;;;;;5107801;28;20024;-82
2023/07/07 10:28:21;;;;;;;12.85;6.07;;;27.40;58.50;;;;;;5108857;28;20677;-81
2023/07/07 10:30:48;;;;;;;11.98;6.50;;;27.80;57.80;;;;;;5110767;27;20110;-81
2023/07/07 10:33:17;;;;;;;10.68;6.80;;;28.10;57.90;;;;;;5095685;28;20024;-80
2023/07/07 10:35:43;;;;;;;11.90;6.50;;;28.30;59.60;;;;;;5103905;27;20912;-80
2023/07/07 10:38:11;;;;;;;11.77;6.68;;;28.40;58.40;;;;;;5084336;28;20023;-78
2023/07/07 10:40:38;;;;;;;10.10;6.43;;;28.50;57.60;;;;;;5103573;28;20446;-80
2023/07/07 10:43:05;;;;;;;15.85;6.68;;;28.70;58.60;;;;;;5076949;28;20377;-81
2023/07/07 10:45:31;;;;;;;11.52;6.50;;;29.00;57.00;;;;;;5109288;27;20028;-73
2023/07/07 10:47:57;;;;;;;11.13;6.88;;;29.20;58.10;;;;;;5107024;28;20043;-79
2023/07/07 10:50:25;;;;;;;11.98;7.10;;;29.20;57.00;;;;;;5100622;28;20036;-77
2023/07/07 10:53:14;;;;;;;11.65;6.57;;;29.30;56.80;;;;;;5104140;28;20035;-80
2023/07/07 10:56:30;;;;;;;12.95;6.05;;;29.30;55.00;;;;;;5107087;28;20081;-79
2023/07/07 10:59:14;;;;;;;15.65;6.25;;;29.20;55.00;;;;;;5084800;28;20044;-76
2023/07/07 11:02:03;;;;;;;13.43;6.97;;;29.40;54.30;;;;;;5098243;28;20433;-75
2023/07/07 11:04:53;;;;;;;11.57;6.45;;;29.60;54.40;;;;;;5109314;28;20051;-72
2023/07/07 11:08:20;;;;;;;11.15;6.40;;;29.70;53.60;;;;;;5104621;28;20035;-76
2023/07/07 11:11:25;;;;;;;13.05;7.07;;;29.80;52.90;;;;;;5047636;28;20040;-78
2023/07/07 11:14:08;;;;;;;11.95;6.95;;;29.90;53.00;;;;;;5065142;28;20073;-80
2023/07/07 11:16:54;;;;;;;16.65;7.45;;;29.80;52.80;;;;;;5063978;28;20853;-81
2023/07/07 11:19:39;;;;;;;13.65;7.18;;;29.80;54.10;;;;;;5025565;28;20048;-78
2023/07/07 11:22:11;;;;;;;12.95;7.55;;;29.90;54.00;;;;;;5062687;28;20519;-78
2023/07/07 11:24:42;;;;;;;11.95;6.75;;;30.10;52.80;;;;;;5064471;28;20028;-83
2023/07/07 11:27:27;;;;;;;12.60;7.43;;;30.30;52.00;;;;;;5064892;28;20025;-79
2023/07/07 11:30:09;;;;;;;13.93;7.85;;;30.20;52.00;;;;;;5064981;28;20055;-79
2023/07/07 11:32:56;;;;;;;15.63;8.45;;;30.00;51.20;;;;;;5061771;28;20051;-79
2023/07/07 11:35:48;;;;;;;15.25;7.88;;;29.60;50.30;;;;;;5048061;28;20072;-77
2023/07/07 11:38:25;;;;;;;13.77;7.80;;;29.90;52.40;;;;;;5064801;28;20582;-79
2023/07/07 11:41:32;;;;;;;14.45;8.55;;;30.00;51.70;;;;;;5071787;28;20066;-78
2023/07/07 11:44:19;;;;;;;12.98;8.05;;;30.00;51.10;;;;;;5045270;28;20079;-78
2023/07/07 11:46:53;;;;;;;15.77;8.55;;;29.90;50.80;;;;;;5040894;28;20068;-77
2023/07/07 11:49:40;;;;;;;16.83;8.27;;;30.00;51.10;;;;;;5071497;28;20063;-78
2023/07/07 11:52:53;;;;;;;17.02;8.40;;;30.20;49.10;;;;;;5105321;28;20029;-79
2023/07/07 11:55:24;;;;;;;13.77;8.10;;;30.10;50.80;;;;;;5049649;28;20082;-78
2023/07/07 11:58:14;;;;;;;14.90;8.95;;;30.20;51.20;;;;;;5110140;28;20027;-79
2023/07/07 12:01:13;;;;;;;15.50;8.70;;;30.40;49.60;;;;;;5109399;28;20036;-77
2023/07/07 12:04:10;;;;;;;15.15;9.02;;;30.40;48.00;;;;;;5092850;28;20052;-80
2023/07/07 12:06:45;;;;;;;13.73;8.80;;;30.40;50.50;;;;;;5091525;28;20495;-73
2023/07/07 12:09:19;;;;;;;15.93;8.95;;;30.80;49.50;;;;;;5092365;28;20368;-80
2023/07/07 12:11:57;;;;;;;19.98;9.10;;;31.20;48.70;;;;;;5101582;28;20043;-76
2023/07/07 12:14:41;;;;;;;14.85;9.25;;;31.20;47.80;;;;;;5111806;28;20023;-76
2023/07/07 12:17:13;;;;;;;16.30;9.38;;;31.20;47.60;;;;;;5101190;28;20153;-79
2023/07/07 12:20:05;;;;;;;15.00;9.15;;;31.10;48.20;;;;;;5110225;28;20049;-82
2023/07/07 12:22:40;;;;;;;15.18;9.52;;;31.10;47.90;;;;;;5110049;28;20047;-81
2023/07/07 12:25:21;;;;;;;17.65;9.75;;;31.10;48.90;;;;;;5112208;28;20034;-79
2023/07/07 12:27:51;;;;;;;16.38;9.18;;;31.10;46.70;;;;;;5099673;28;20027;-76
2023/07/07 12:30:30;;;;;;;18.37;8.80;;;31.30;48.40;;;;;;5111109;28;20039;-79
2023/07/07 12:32:59;;;;;;;14.63;8.98;;;31.50;48.60;;;;;;5101620;28;20039;-79
2023/07/07 12:35:42;;;;;;;15.70;9.03;;;31.20;47.00;;;;;;5111128;27;20106;-79
2023/07/07 12:38:24;;;;;;;17.40;9.55;;;30.90;48.30;;;;;;5091619;28;20269;-81
2023/07/07 12:40:49;;;;;;;17.63;9.85;;;30.90;48.60;;;;;;5099775;28;20028;-80
2023/07/07 12:43:50;;;;;;;15.73;9.40;;;30.90;47.90;;;;;;5110355;28;20142;-76
2023/07/07 12:46:48;;;;;;;16.45;9.30;;;30.80;47.30;;;;;;5099754;27;20044;-79
2023/07/07 12:49:25;;;;;;;20.95;10.00;;;31.10;45.80;;;;;;5051865;28;20043;-79
2023/07/07 12:51:58;;;;;;;19.90;9.70;;;31.00;46.40;;;;;;5104975;28;20084;-79
2023/07/07 12:54:35;;;;;;;21.35;9.93;;;30.90;45.00;;;;;;5103164;28;20046;-79
2023/07/07 12:57:22;;;;;;;18.45;10.77;;;30.80;45.40;;;;;;5108881;28;20035;-79
2023/07/07 12:59:48;;;;;;;16.98;9.75;;;31.00;46.10;;;;;;5106912;28;20027;-78
2023/07/07 13:02:23;;;;;;;16.27;9.88;;;31.30;45.30;;;;;;5109046;28;20035;-76